Blue Mountain Lake, NY

2:38 PM EST on November 28, 2014 (GMT -0500)
Plumley's Garage | Change Station
CLOSE
Current Station
Personal Weather Station
Location: Long Lake, NY
Elevation: 1650 ft
Nearby Weather Stations

Elev 1650 ft 43.97 °N, 74.42 °W | Updated 3 seconds ago

Overcast
Overcast
21.7 °F
Feels Like 22 °F
N
0.0
Wind Variable Wind from NW
Gusts 0.0 mph

Today
High -- | Low -- °F
--% Chance of Precip.
Yesterday
High -- | Low -- °F
Precip. -- in
7:08 AM 4:22 PM
Waxing Crescent, 43% visible
Pressure 30.01 in
Visibility 1.8 miles
Clouds Mostly Cloudy 1600 ft
Mostly Cloudy 2300 ft
Overcast 3900 ft
Windchill 22 °F
Dew Point 14 °F
Humidity 73%
Rainfall 0.00 in
Snow Depth Not available.
UV 0 out of 12
Pollen .10 out of 12
Air Quality Not available.
Flu Activity Not available.
SPECI KSLK 281935Z AUTO 26004KT 1 3/4SM -SN BKN016 BKN023 OVC039 M07/M10 A3001 RMK AO2 SNE1854B19 P0000 T10671100

More Conditions Fewer Conditions

Pressure 30.01 in
Visibility 1.8 miles
Clouds Mostly Cloudy 1600 ft
Mostly Cloudy 2300 ft
Overcast 3900 ft
Windchill 22 °F
Dew Point 14 °F
Humidity 73%
Rainfall 0.00 in
Snow Depth Not available.
UV 0 out of 12
Pollen .10 out of 12
Air Quality Not available.
Flu Activity Not available.
SPECI KSLK 281935Z AUTO 26004KT 1 3/4SM -SN BKN016 BKN023 OVC039 M07/M10 A3001 RMK AO2 SNE1854B19 P0000 T10671100

More Conditions Fewer Conditions

10-Day Weather Forecast

Almanac

Astronomy

Nov. 28, 2014 Rise Set
Actual Time
Civil Twilight
Nautical Twilight
Astronomical Twilight
Moon
Length of Visible Light
Length of Day
Tomorrow will be .
, % of the Moon is Illuminated

Today's Extremes

State Highs State Lows

Community

WunderPhotos

Upload Photos

1,774,267 photos uploaded!

WunderBlogs® & News

Nearby

Air Quality

  Air Quality AQ Index Pollutant
Not available.

Snow Depth

Station Depth Elevation

Earthquake Activity

City Distance Mag. Time & Date
Minimum magnitude displayed is 2.5.

Coastal Water Temperatures

Place Temperature

Nearby Weather Stations